sensor_id;sensor_type;location;lat;lon;timestamp;temperature;humidity
14934;DHT22;7560;51.364;12.384;2023-05-10T00:00:04;12.20;99.90
14934;DHT22;7560;51.364;12.384;2023-05-10T00:05:08;12.20;99.90
14934;DHT22;7560;51.364;12.384;2023-05-10T00:10:10;12.10;99.90
14934;DHT22;7560;51.364;12.384;2023-05-10T00:15:13;12.10;99.90
14934;DHT22;7560;51.364;12.384;2023-05-10T00:20:15;12.10;99.90
14934;DHT22;7560;51.364;12.384;2023-05-10T00:25:20;12.00;99.90
14934;DHT22;7560;51.364;12.384;2023-05-10T00:30:24;12.10;99.90
14934;DHT22;7560;51.364;12.384;2023-05-10T00:35:27;12.10;99.90
14934;DHT22;7560;51.364;12.384;2023-05-10T00:40:29;12.10;99.90
14934;DHT22;7560;51.364;12.384;2023-05-10T00:45:33;12.10;99.90
14934;DHT22;7560;51.364;12.384;2023-05-10T00:50:36;12.10;99.90
14934;DHT22;7560;51.364;12.384;2023-05-10T00:55:38;12.10;99.90
14934;DHT22;7560;51.364;12.384;2023-05-10T01:00:43;12.00;99.90
14934;DHT22;7560;51.364;12.384;2023-05-10T01:05:48;11.90;99.90
14934;DHT22;7560;51.364;12.384;2023-05-10T01:10:51;11.80;99.90
14934;DHT22;7560;51.364;12.384;2023-05-10T01:15:55;11.80;99.90
14934;DHT22;7560;51.364;12.384;2023-05-10T01:21:43;11.80;99.90
14934;DHT22;7560;51.364;12.384;2023-05-10T01:38:14;11.70;99.90
14934;DHT22;7560;51.364;12.384;2023-05-10T01:43:26;11.70;99.90
14934;DHT22;7560;51.364;12.384;2023-05-10T01:48:31;11.70;99.90
14934;DHT22;7560;51.364;12.384;2023-05-10T01:53:34;11.60;99.90
14934;DHT22;7560;51.364;12.384;2023-05-10T01:58:40;11.60;99.90
14934;DHT22;7560;51.364;12.384;2023-05-10T02:03:44;11.50;99.90
14934;DHT22;7560;51.364;12.384;2023-05-10T02:08:48;11.50;99.90
14934;DHT22;7560;51.364;12.384;2023-05-10T02:13:51;11.50;99.90
14934;DHT22;7560;51.364;12.384;2023-05-10T02:18:56;11.50;99.90
14934;DHT22;7560;51.364;12.384;2023-05-10T02:24:01;11.50;99.90
14934;DHT22;7560;51.364;12.384;2023-05-10T02:29:05;11.50;99.90
14934;DHT22;7560;51.364;12.384;2023-05-10T02:34:09;11.40;99.90
14934;DHT22;7560;51.364;12.384;2023-05-10T02:39:13;11.40;99.90
14934;DHT22;7560;51.364;12.384;2023-05-10T02:44:18;11.40;99.90
14934;DHT22;7560;51.364;12.384;2023-05-10T02:49:20;11.30;99.90
14934;DHT22;7560;51.364;12.384;2023-05-10T02:54:28;11.30;99.90
14934;DHT22;7560;51.364;12.384;2023-05-10T02:59:31;11.30;99.90
14934;DHT22;7560;51.364;12.384;2023-05-10T03:04:35;11.20;99.90
14934;DHT22;7560;51.364;12.384;2023-05-10T03:09:37;11.20;99.90
14934;DHT22;7560;51.364;12.384;2023-05-10T03:15:11;11.10;99.90
14934;DHT22;7560;51.364;12.384;2023-05-10T03:26:08;11.20;99.90
14934;DHT22;7560;51.364;12.384;2023-05-10T03:31:12;11.10;99.90
14934;DHT22;7560;51.364;12.384;2023-05-10T03:36:14;11.10;99.90
14934;DHT22;7560;51.364;12.384;2023-05-10T03:41:17;11.20;99.90
14934;DHT22;7560;51.364;12.384;2023-05-10T03:46:19;11.10;99.90
14934;DHT22;7560;51.364;12.384;2023-05-10T03:51:21;11.20;99.90
14934;DHT22;7560;51.364;12.384;2023-05-10T03:56:23;11.20;99.90
14934;DHT22;7560;51.364;12.384;2023-05-10T04:01:25;11.30;99.90
14934;DHT22;7560;51.364;12.384;2023-05-10T04:06:29;11.40;99.90
14934;DHT22;7560;51.364;12.384;2023-05-10T04:11:32;11.40;99.90
14934;DHT22;7560;51.364;12.384;2023-05-10T04:16:34;11.50;99.90
14934;DHT22;7560;51.364;12.384;2023-05-10T04:21:38;11.60;99.90
14934;DHT22;7560;51.364;12.384;2023-05-10T04:26:39;11.70;99.90
14934;DHT22;7560;51.364;12.384;2023-05-10T04:31:41;11.70;99.90
14934;DHT22;7560;51.364;12.384;2023-05-10T04:36:43;11.80;99.90
14934;DHT22;7560;51.364;12.384;2023-05-10T04:41:45;11.90;99.90
14934;DHT22;7560;51.364;12.384;2023-05-10T04:46:47;12.00;99.90
14934;DHT22;7560;51.364;12.384;2023-05-10T04:51:49;12.10;99.90
14934;DHT22;7560;51.364;12.384;2023-05-10T04:56:50;12.30;99.90
14934;DHT22;7560;51.364;12.384;2023-05-10T05:01:53;12.60;99.90
14934;DHT22;7560;51.364;12.384;2023-05-10T05:06:54;12.70;99.90
14934;DHT22;7560;51.364;12.384;2023-05-10T05:11:58;12.80;99.90
14934;DHT22;7560;51.364;12.384;2023-05-10T05:17:00;13.10;99.90
14934;DHT22;7560;51.364;12.384;2023-05-10T05:22:03;13.30;99.90
14934;DHT22;7560;51.364;12.384;2023-05-10T05:27:05;13.50;99.90
14934;DHT22;7560;51.364;12.384;2023-05-10T05:32:07;13.80;99.90
14934;DHT22;7560;51.364;12.384;2023-05-10T05:37:13;14.10;99.90
14934;DHT22;7560;51.364;12.384;2023-05-10T05:42:15;14.20;99.90
14934;DHT22;7560;51.364;12.384;2023-05-10T05:47:21;14.40;99.90
14934;DHT22;7560;51.364;12.384;2023-05-10T05:52:25;14.60;99.90
14934;DHT22;7560;51.364;12.384;2023-05-10T05:57:27;14.90;99.90
14934;DHT22;7560;51.364;12.384;2023-05-10T06:02:31;15.00;99.90
14934;DHT22;7560;51.364;12.384;2023-05-10T06:07:33;15.40;99.90
14934;DHT22;7560;51.364;12.384;2023-05-10T06:12:39;15.60;99.90
14934;DHT22;7560;51.364;12.384;2023-05-10T06:17:42;15.70;99.90
14934;DHT22;7560;51.364;12.384;2023-05-10T06:22:44;16.00;99.90
14934;DHT22;7560;51.364;12.384;2023-05-10T06:27:46;15.90;99.90
14934;DHT22;7560;51.364;12.384;2023-05-10T06:32:54;16.20;99.90
14934;DHT22;7560;51.364;12.384;2023-05-10T06:37:56;16.10;99.90
14934;DHT22;7560;51.364;12.384;2023-05-10T06:42:58;16.20;99.90
14934;DHT22;7560;51.364;12.384;2023-05-10T06:48:00;16.60;99.90
14934;DHT22;7560;51.364;12.384;2023-05-10T06:53:02;16.90;99.90
14934;DHT22;7560;51.364;12.384;2023-05-10T06:58:07;17.20;99.90
14934;DHT22;7560;51.364;12.384;2023-05-10T07:03:09;17.50;99.90
14934;DHT22;7560;51.364;12.384;2023-05-10T07:08:11;17.70;99.90
14934;DHT22;7560;51.364;12.384;2023-05-10T07:13:14;18.00;99.90
14934;DHT22;7560;51.364;12.384;2023-05-10T07:18:20;18.00;99.90
14934;DHT22;7560;51.364;12.384;2023-05-10T07:23:23;17.90;99.90
14934;DHT22;7560;51.364;12.384;2023-05-10T07:28:24;17.90;99.90
14934;DHT22;7560;51.364;12.384;2023-05-10T07:33:26;17.90;99.90
14934;DHT22;7560;51.364;12.384;2023-05-10T07:38:28;18.10;99.90
14934;DHT22;7560;51.364;12.384;2023-05-10T07:43:33;18.70;99.90
14934;DHT22;7560;51.364;12.384;2023-05-10T07:48:36;19.00;99.90
14934;DHT22;7560;51.364;12.384;2023-05-10T07:53:38;19.20;99.90
14934;DHT22;7560;51.364;12.384;2023-05-10T07:58:40;19.30;99.90
14934;DHT22;7560;51.364;12.384;2023-05-10T08:03:42;19.90;99.90
14934;DHT22;7560;51.364;12.384;2023-05-10T08:08:46;20.30;99.90
14934;DHT22;7560;51.364;12.384;2023-05-10T08:13:51;19.90;99.90
14934;DHT22;7560;51.364;12.384;2023-05-10T08:18:55;20.00;99.90
14934;DHT22;7560;51.364;12.384;2023-05-10T08:23:57;20.20;99.90
14934;DHT22;7560;51.364;12.384;2023-05-10T08:28:59;20.40;99.90
14934;DHT22;7560;51.364;12.384;2023-05-10T08:34:02;20.50;99.90
14934;DHT22;7560;51.364;12.384;2023-05-10T08:39:04;20.30;99.90
14934;DHT22;7560;51.364;12.384;2023-05-10T08:44:20;20.00;99.90
14934;DHT22;7560;51.364;12.384;2023-05-10T08:49:22;19.80;99.90
14934;DHT22;7560;51.364;12.384;2023-05-10T08:54:26;19.60;99.90
14934;DHT22;7560;51.364;12.384;2023-05-10T08:59:28;19.60;99.90
14934;DHT22;7560;51.364;12.384;2023-05-10T09:04:31;19.50;99.90
14934;DHT22;7560;51.364;12.384;2023-05-10T09:09:33;19.40;99.90
14934;DHT22;7560;51.364;12.384;2023-05-10T09:14:36;19.40;99.90
14934;DHT22;7560;51.364;12.384;2023-05-10T09:19:40;19.00;99.90
14934;DHT22;7560;51.364;12.384;2023-05-10T09:24:42;18.90;99.90
14934;DHT22;7560;51.364;12.384;2023-05-10T09:29:46;18.50;99.90
14934;DHT22;7560;51.364;12.384;2023-05-10T09:34:49;18.20;99.90
14934;DHT22;7560;51.364;12.384;2023-05-10T09:39:54;17.70;99.90
14934;DHT22;7560;51.364;12.384;2023-05-10T09:45:01;17.20;99.90
14934;DHT22;7560;51.364;12.384;2023-05-10T09:50:05;16.90;99.90
14934;DHT22;7560;51.364;12.384;2023-05-10T09:55:08;16.90;99.90
14934;DHT22;7560;51.364;12.384;2023-05-10T10:00:18;17.00;99.90
14934;DHT22;7560;51.364;12.384;2023-05-10T10:05:20;17.30;99.90
14934;DHT22;7560;51.364;12.384;2023-05-10T10:10:22;17.30;99.90
14934;DHT22;7560;51.364;12.384;2023-05-10T10:15:24;17.30;99.90
14934;DHT22;7560;51.364;12.384;2023-05-10T10:20:27;17.20;99.90
14934;DHT22;7560;51.364;12.384;2023-05-10T10:25:29;17.30;99.90
14934;DHT22;7560;51.364;12.384;2023-05-10T10:30:41;17.60;99.90
14934;DHT22;7560;51.364;12.384;2023-05-10T10:35:45;17.70;99.90
14934;DHT22;7560;51.364;12.384;2023-05-10T10:40:48;17.70;99.90
14934;DHT22;7560;51.364;12.384;2023-05-10T10:46:15;17.70;99.90
14934;DHT22;7560;51.364;12.384;2023-05-10T10:51:19;17.90;99.90
14934;DHT22;7560;51.364;12.384;2023-05-10T10:56:22;18.10;99.90
14934;DHT22;7560;51.364;12.384;2023-05-10T11:01:32;18.20;99.90
14934;DHT22;7560;51.364;12.384;2023-05-10T11:06:36;18.10;99.90
14934;DHT22;7560;51.364;12.384;2023-05-10T11:11:53;18.10;99.90
14934;DHT22;7560;51.364;12.384;2023-05-10T11:17:01;18.10;99.90
14934;DHT22;7560;51.364;12.384;2023-05-10T11:27:06;17.20;99.90
14934;DHT22;7560;51.364;12.384;2023-05-10T11:32:10;17.50;99.90
14934;DHT22;7560;51.364;12.384;2023-05-10T11:37:14;17.70;99.90
14934;DHT22;7560;51.364;12.384;2023-05-10T11:42:16;17.50;99.90
14934;DHT22;7560;51.364;12.384;2023-05-10T11:47:18;18.10;99.90
14934;DHT22;7560;51.364;12.384;2023-05-10T11:52:20;17.60;99.90
14934;DHT22;7560;51.364;12.384;2023-05-10T11:57:27;18.20;99.90
14934;DHT22;7560;51.364;12.384;2023-05-10T12:02:30;17.90;99.90
14934;DHT22;7560;51.364;12.384;2023-05-10T12:07:33;18.30;99.90
14934;DHT22;7560;51.364;12.384;2023-05-10T12:12:43;17.60;99.90
14934;DHT22;7560;51.364;12.384;2023-05-10T12:17:46;17.20;99.90
14934;DHT22;7560;51.364;12.384;2023-05-10T12:22:53;17.70;99.90
14934;DHT22;7560;51.364;12.384;2023-05-10T12:27:57;17.60;99.90
14934;DHT22;7560;51.364;12.384;2023-05-10T12:33:11;17.90;99.90
14934;DHT22;7560;51.364;12.384;2023-05-10T12:38:31;18.60;99.90
14934;DHT22;7560;51.364;12.384;2023-05-10T12:43:35;19.00;99.90
14934;DHT22;7560;51.364;12.384;2023-05-10T12:48:39;18.50;99.90
14934;DHT22;7560;51.364;12.384;2023-05-10T12:53:41;18.10;99.90
14934;DHT22;7560;51.364;12.384;2023-05-10T12:58:46;18.30;99.90
14934;DHT22;7560;51.364;12.384;2023-05-10T13:03:51;18.40;99.90
14934;DHT22;7560;51.364;12.384;2023-05-10T13:08:54;18.40;99.90
14934;DHT22;7560;51.364;12.384;2023-05-10T13:13:55;18.70;99.90
14934;DHT22;7560;51.364;12.384;2023-05-10T13:18:57;19.30;99.90
14934;DHT22;7560;51.364;12.384;2023-05-10T13:23:59;19.50;99.90
14934;DHT22;7560;51.364;12.384;2023-05-10T13:29:03;19.70;99.90
14934;DHT22;7560;51.364;12.384;2023-05-10T13:34:05;19.80;99.90
14934;DHT22;7560;51.364;12.384;2023-05-10T13:39:07;20.00;99.90
14934;DHT22;7560;51.364;12.384;2023-05-10T13:44:12;19.90;99.90
14934;DHT22;7560;51.364;12.384;2023-05-10T13:49:14;20.00;99.90
14934;DHT22;7560;51.364;12.384;2023-05-10T13:54:17;20.20;99.90
14934;DHT22;7560;51.364;12.384;2023-05-10T13:59:21;20.50;99.90
14934;DHT22;7560;51.364;12.384;2023-05-10T14:04:23;20.50;99.90
14934;DHT22;7560;51.364;12.384;2023-05-10T14:09:24;20.10;99.90
14934;DHT22;7560;51.364;12.384;2023-05-10T14:14:27;19.80;99.90
14934;DHT22;7560;51.364;12.384;2023-05-10T14:19:30;19.50;99.90
14934;DHT22;7560;51.364;12.384;2023-05-10T14:24:34;19.00;99.90
14934;DHT22;7560;51.364;12.384;2023-05-10T14:29:36;18.80;99.90
14934;DHT22;7560;51.364;12.384;2023-05-10T14:34:38;18.80;99.90
14934;DHT22;7560;51.364;12.384;2023-05-10T14:39:39;18.60;99.90
14934;DHT22;7560;51.364;12.384;2023-05-10T14:44:43;18.70;99.90
14934;DHT22;7560;51.364;12.384;2023-05-10T14:49:44;18.80;99.90
14934;DHT22;7560;51.364;12.384;2023-05-10T14:54:46;18.70;99.90
14934;DHT22;7560;51.364;12.384;2023-05-10T14:59:48;18.60;99.90
14934;DHT22;7560;51.364;12.384;2023-05-10T15:04:52;18.80;99.90
14934;DHT22;7560;51.364;12.384;2023-05-10T15:09:54;18.80;99.90
14934;DHT22;7560;51.364;12.384;2023-05-10T15:14:57;18.60;99.90
14934;DHT22;7560;51.364;12.384;2023-05-10T15:19:59;18.30;99.90
14934;DHT22;7560;51.364;12.384;2023-05-10T15:25:02;18.00;99.90
14934;DHT22;7560;51.364;12.384;2023-05-10T15:30:04;17.70;99.90
14934;DHT22;7560;51.364;12.384;2023-05-10T15:35:08;17.40;99.90
14934;DHT22;7560;51.364;12.384;2023-05-10T15:40:11;17.10;99.90
14934;DHT22;7560;51.364;12.384;2023-05-10T15:45:13;17.00;99.90
14934;DHT22;7560;51.364;12.384;2023-05-10T15:50:17;16.90;99.90
14934;DHT22;7560;51.364;12.384;2023-05-10T15:55:20;17.00;99.90
14934;DHT22;7560;51.364;12.384;2023-05-10T16:00:23;17.00;99.90
14934;DHT22;7560;51.364;12.384;2023-05-10T16:05:25;17.00;99.90
14934;DHT22;7560;51.364;12.384;2023-05-10T16:10:31;17.00;99.90
14934;DHT22;7560;51.364;12.384;2023-05-10T16:15:34;17.10;99.90
14934;DHT22;7560;51.364;12.384;2023-05-10T16:20:37;17.20;99.90
14934;DHT22;7560;51.364;12.384;2023-05-10T16:25:42;17.40;99.90
14934;DHT22;7560;51.364;12.384;2023-05-10T16:30:47;17.50;99.90
14934;DHT22;7560;51.364;12.384;2023-05-10T16:35:50;17.70;99.90
14934;DHT22;7560;51.364;12.384;2023-05-10T16:40:55;17.80;99.90
14934;DHT22;7560;51.364;12.384;2023-05-10T16:45:58;17.90;99.90
14934;DHT22;7560;51.364;12.384;2023-05-10T16:51:01;17.90;99.90
14934;DHT22;7560;51.364;12.384;2023-05-10T16:56:03;17.90;99.90
14934;DHT22;7560;51.364;12.384;2023-05-10T17:01:05;17.90;99.90
14934;DHT22;7560;51.364;12.384;2023-05-10T17:06:07;17.70;99.90
14934;DHT22;7560;51.364;12.384;2023-05-10T17:11:09;17.70;99.90
14934;DHT22;7560;51.364;12.384;2023-05-10T17:16:11;17.60;99.90
14934;DHT22;7560;51.364;12.384;2023-05-10T17:21:13;17.50;99.90
14934;DHT22;7560;51.364;12.384;2023-05-10T17:26:16;17.30;99.90
14934;DHT22;7560;51.364;12.384;2023-05-10T17:31:19;17.20;99.90
14934;DHT22;7560;51.364;12.384;2023-05-10T17:36:20;17.10;99.90
14934;DHT22;7560;51.364;12.384;2023-05-10T17:41:23;17.10;99.90
14934;DHT22;7560;51.364;12.384;2023-05-10T17:46:25;17.00;99.90
14934;DHT22;7560;51.364;12.384;2023-05-10T17:51:26;16.90;99.90
14934;DHT22;7560;51.364;12.384;2023-05-10T17:56:29;16.80;99.90
14934;DHT22;7560;51.364;12.384;2023-05-10T18:01:31;16.70;99.90
14934;DHT22;7560;51.364;12.384;2023-05-10T18:06:36;16.60;99.90
14934;DHT22;7560;51.364;12.384;2023-05-10T18:11:40;16.50;99.90
14934;DHT22;7560;51.364;12.384;2023-05-10T18:16:42;16.40;99.90
14934;DHT22;7560;51.364;12.384;2023-05-10T18:21:51;16.30;99.90
14934;DHT22;7560;51.364;12.384;2023-05-10T18:26:53;16.30;99.90
14934;DHT22;7560;51.364;12.384;2023-05-10T18:31:56;16.20;99.90
14934;DHT22;7560;51.364;12.384;2023-05-10T18:36:58;16.10;99.90
14934;DHT22;7560;51.364;12.384;2023-05-10T18:42:02;16.00;99.90
14934;DHT22;7560;51.364;12.384;2023-05-10T18:47:04;16.00;99.90
14934;DHT22;7560;51.364;12.384;2023-05-10T18:52:06;15.90;99.90
14934;DHT22;7560;51.364;12.384;2023-05-10T18:57:08;15.80;99.90
14934;DHT22;7560;51.364;12.384;2023-05-10T19:02:10;15.80;99.90
14934;DHT22;7560;51.364;12.384;2023-05-10T19:07:14;15.80;99.90
14934;DHT22;7560;51.364;12.384;2023-05-10T19:12:16;15.80;99.90
14934;DHT22;7560;51.364;12.384;2023-05-10T19:17:17;15.70;99.90
14934;DHT22;7560;51.364;12.384;2023-05-10T19:22:19;15.70;99.90
14934;DHT22;7560;51.364;12.384;2023-05-10T19:27:41;15.60;99.90
14934;DHT22;7560;51.364;12.384;2023-05-10T19:32:43;15.50;99.90
14934;DHT22;7560;51.364;12.384;2023-05-10T19:37:45;15.50;99.90
14934;DHT22;7560;51.364;12.384;2023-05-10T19:42:48;15.50;99.90
14934;DHT22;7560;51.364;12.384;2023-05-10T19:47:49;15.50;99.90
14934;DHT22;7560;51.364;12.384;2023-05-10T19:52:59;15.40;99.90
14934;DHT22;7560;51.364;12.384;2023-05-10T20:03:07;15.40;99.90
14934;DHT22;7560;51.364;12.384;2023-05-10T20:08:13;15.30;99.90
14934;DHT22;7560;51.364;12.384;2023-05-10T20:13:15;15.20;99.90
14934;DHT22;7560;51.364;12.384;2023-05-10T20:18:16;15.20;99.90
14934;DHT22;7560;51.364;12.384;2023-05-10T20:23:18;15.20;99.90
14934;DHT22;7560;51.364;12.384;2023-05-10T20:28:24;15.20;99.90
14934;DHT22;7560;51.364;12.384;2023-05-10T20:33:26;15.30;99.90
14934;DHT22;7560;51.364;12.384;2023-05-10T20:38:28;15.30;99.90
14934;DHT22;7560;51.364;12.384;2023-05-10T20:43:30;15.30;99.90
14934;DHT22;7560;51.364;12.384;2023-05-10T20:48:32;15.20;99.90
14934;DHT22;7560;51.364;12.384;2023-05-10T20:53:34;15.00;99.90
14934;DHT22;7560;51.364;12.384;2023-05-10T20:58:36;14.90;99.90
14934;DHT22;7560;51.364;12.384;2023-05-10T21:03:38;14.90;99.90
14934;DHT22;7560;51.364;12.384;2023-05-10T21:08:40;14.90;99.90
14934;DHT22;7560;51.364;12.384;2023-05-10T21:13:42;14.90;99.90
14934;DHT22;7560;51.364;12.384;2023-05-10T21:18:45;15.00;99.90
14934;DHT22;7560;51.364;12.384;2023-05-10T21:23:47;14.90;99.90
14934;DHT22;7560;51.364;12.384;2023-05-10T21:28:49;14.80;99.90
14934;DHT22;7560;51.364;12.384;2023-05-10T21:33:51;14.80;99.90
14934;DHT22;7560;51.364;12.384;2023-05-10T21:38:54;14.80;99.90
14934;DHT22;7560;51.364;12.384;2023-05-10T21:43:57;14.80;99.90
14934;DHT22;7560;51.364;12.384;2023-05-10T21:49:00;14.80;99.90
14934;DHT22;7560;51.364;12.384;2023-05-10T21:54:02;14.80;99.90
14934;DHT22;7560;51.364;12.384;2023-05-10T21:59:05;14.80;99.90
14934;DHT22;7560;51.364;12.384;2023-05-10T22:04:07;14.80;99.90
14934;DHT22;7560;51.364;12.384;2023-05-10T22:09:09;14.80;99.90
14934;DHT22;7560;51.364;12.384;2023-05-10T22:14:11;14.70;99.90
14934;DHT22;7560;51.364;12.384;2023-05-10T22:19:20;14.70;99.90
14934;DHT22;7560;51.364;12.384;2023-05-10T22:24:22;14.70;99.90
14934;DHT22;7560;51.364;12.384;2023-05-10T22:29:25;14.80;99.90
14934;DHT22;7560;51.364;12.384;2023-05-10T22:34:27;14.70;99.90
14934;DHT22;7560;51.364;12.384;2023-05-10T22:39:30;14.70;99.90
14934;DHT22;7560;51.364;12.384;2023-05-10T22:44:33;14.70;99.90
14934;DHT22;7560;51.364;12.384;2023-05-10T22:49:35;14.70;99.90
14934;DHT22;7560;51.364;12.384;2023-05-10T22:54:38;14.70;99.90
14934;DHT22;7560;51.364;12.384;2023-05-10T22:59:40;14.70;99.90
14934;DHT22;7560;51.364;12.384;2023-05-10T23:04:44;14.80;99.90
14934;DHT22;7560;51.364;12.384;2023-05-10T23:09:46;14.70;99.90
14934;DHT22;7560;51.364;12.384;2023-05-10T23:14:49;14.70;99.90
14934;DHT22;7560;51.364;12.384;2023-05-10T23:19:51;14.60;99.90
14934;DHT22;7560;51.364;12.384;2023-05-10T23:24:54;14.70;99.90
14934;DHT22;7560;51.364;12.384;2023-05-10T23:29:56;14.80;99.90
14934;DHT22;7560;51.364;12.384;2023-05-10T23:34:58;14.70;99.90
14934;DHT22;7560;51.364;12.384;2023-05-10T23:40:00;14.80;99.90
14934;DHT22;7560;51.364;12.384;2023-05-10T23:45:04;14.70;99.90
14934;DHT22;7560;51.364;12.384;2023-05-10T23:50:06;14.70;99.90
14934;DHT22;7560;51.364;12.384;2023-05-10T23:55:09;14.60;99.90
